Time;durP1;ratioP1;P1;durP2;ratioP2;P2;SDS_P1;SDS_P2;PMS_P1;PMS_P2;Temp;Humidity;BMP_temperature;BMP_pressure;BME280_temperature;BME280_humidity;BME280_pressure;Samples;Min_cycle;Max_cycle;Signal;HPM_P1;HPM_P2
2022/12/12 00:00:27;;;;;;;;;;;;;;;;;;;;;
2022/12/12 00:02:52;;;;;;;33.55;21.05;;;0.30;86.60;;;;;;5030286;28;20389;-77
2022/12/12 00:05:18;;;;;;;34.33;20.95;;;0.20;86.70;;;;;;5034156;28;20033;-79
2022/12/12 00:07:47;;;;;;;39.50;19.63;;;0.20;86.80;;;;;;5037266;28;20041;-75
2022/12/12 00:10:15;;;;;;;36.50;20.17;;;0.20;86.80;;;;;;5031810;28;20037;-79
2022/12/12 00:12:41;;;;;;;34.33;20.55;;;0.20;86.80;;;;;;5031418;28;20486;-80
2022/12/12 00:15:12;;;;;;;38.78;20.58;;;0.20;86.80;;;;;;5031382;28;20151;-77
2022/12/12 00:17:41;;;;;;;33.17;20.15;;;0.10;86.90;;;;;;5030710;28;20373;-74
2022/12/12 00:20:11;;;;;;;35.15;19.13;;;0.10;87.10;;;;;;5029648;28;20040;-75
2022/12/12 00:22:37;;;;;;;33.10;18.00;;;0.10;87.20;;;;;;5032861;28;20053;-74
2022/12/12 00:25:08;;;;;;;36.00;20.13;;;0.10;87.20;;;;;;5034464;28;20033;-71
2022/12/12 00:27:34;;;;;;;36.58;20.98;;;0.10;87.20;;;;;;5001837;28;20562;-75
2022/12/12 00:29:59;;;;;;;34.45;19.77;;;0.00;87.30;;;;;;5038242;28;20388;-73
2022/12/12 00:32:26;;;;;;;33.45;18.90;;;0.10;87.30;;;;;;5030112;28;20115;-74
2022/12/12 00:34:56;;;;;;;34.67;19.77;;;0.10;87.20;;;;;;5033173;28;20024;-77
2022/12/12 00:37:22;;;;;;;31.05;18.27;;;0.10;87.20;;;;;;5036052;28;20426;-73
2022/12/12 00:39:52;;;;;;;33.83;18.13;;;0.10;87.20;;;;;;5031287;28;20424;-75
2022/12/12 00:42:20;;;;;;;31.70;18.10;;;0.00;87.30;;;;;;5035611;28;20029;-77
2022/12/12 00:44:48;;;;;;;35.28;20.40;;;0.00;87.10;;;;;;5036892;28;20070;-76
2022/12/12 00:47:14;;;;;;;36.05;19.30;;;0.10;87.30;;;;;;5027456;28;20045;-76
2022/12/12 00:49:39;;;;;;;34.60;19.95;;;0.10;87.10;;;;;;5034221;28;20021;-77
2022/12/12 00:52:07;;;;;;;35.40;18.95;;;0.00;87.20;;;;;;5027378;28;20041;-75
2022/12/12 00:54:35;;;;;;;37.45;20.25;;;0.00;87.20;;;;;;5030997;28;20128;-79
2022/12/12 00:57:01;;;;;;;38.70;20.08;;;0.00;87.20;;;;;;5028647;28;20051;-77
2022/12/12 00:59:37;;;;;;;34.20;18.35;;;0.00;87.20;;;;;;5040003;28;20882;-76
2022/12/12 01:02:05;;;;;;;33.47;18.73;;;0.00;87.10;;;;;;5030560;28;20032;-73
2022/12/12 01:04:33;;;;;;;39.65;20.27;;;0.00;87.00;;;;;;5032650;28;20037;-74
2022/12/12 01:07:01;;;;;;;37.08;19.50;;;0.00;87.00;;;;;;5040213;28;20041;-77
2022/12/12 01:09:26;;;;;;;41.15;21.50;;;0.00;86.80;;;;;;5035777;28;20026;-75
2022/12/12 01:11:52;;;;;;;38.28;20.85;;;0.00;86.80;;;;;;5038212;28;20046;-75
2022/12/12 01:14:18;;;;;;;38.60;20.90;;;0.00;86.80;;;;;;5032706;28;20026;-77
2022/12/12 01:16:43;;;;;;;41.80;23.00;;;-3276.70;86.70;;;;;;5031598;28;20049;-80
2022/12/12 01:19:09;;;;;;;39.97;24.10;;;0.00;86.60;;;;;;5039303;28;20548;-80
2022/12/12 01:21:36;;;;;;;40.97;22.67;;;-3276.70;86.50;;;;;;5033748;28;20051;-74
2022/12/12 01:24:04;;;;;;;43.28;23.30;;;-3276.60;86.60;;;;;;5036665;28;20041;-75
2022/12/12 01:26:37;;;;;;;41.38;23.15;;;-3276.60;86.70;;;;;;5039081;28;20037;-81
2022/12/12 01:29:07;;;;;;;39.17;20.83;;;-3276.60;86.80;;;;;;5033541;28;20519;-73
2022/12/12 01:31:35;;;;;;;40.47;22.52;;;-3276.50;86.90;;;;;;5034849;28;20060;-74
2022/12/12 01:34:01;;;;;;;41.03;23.25;;;-3276.50;87.00;;;;;;5036005;28;20409;-76
2022/12/12 01:36:29;;;;;;;40.92;22.05;;;-3276.50;87.00;;;;;;5038897;28;20039;-76
2022/12/12 01:38:55;;;;;;;36.03;21.48;;;-3276.50;87.10;;;;;;5031753;28;20108;-76
2022/12/12 01:41:22;;;;;;;42.55;23.27;;;-3276.50;87.10;;;;;;5033759;28;20044;-79
2022/12/12 01:43:55;;;;;;;36.38;21.48;;;-3276.50;87.10;;;;;;5032103;28;20501;-75
2022/12/12 01:46:34;;;;;;;43.22;23.23;;;-3276.50;87.30;;;;;;5030723;28;20573;-79
2022/12/12 01:49:24;;;;;;;39.22;21.85;;;-3276.40;87.20;;;;;;5035384;28;20090;-75
2022/12/12 01:51:56;;;;;;;41.67;21.35;;;-3276.50;87.30;;;;;;5028670;28;20048;-79
2022/12/12 01:54:30;;;;;;;41.03;21.40;;;-3276.50;87.50;;;;;;5036835;28;20575;-74
2022/12/12 01:57:02;;;;;;;41.93;22.93;;;-3276.40;87.50;;;;;;5032909;28;20038;-77
2022/12/12 01:59:28;;;;;;;33.80;19.95;;;-3276.40;87.50;;;;;;5029763;28;20138;-75
2022/12/12 02:01:54;;;;;;;36.58;22.33;;;-3276.40;87.70;;;;;;5038643;28;20084;-77
2022/12/12 02:04:26;;;;;;;38.42;20.23;;;-3276.40;87.70;;;;;;5033269;28;20120;-76
2022/12/12 02:06:55;;;;;;;39.28;21.63;;;-3276.40;87.70;;;;;;5029923;28;20031;-78
2022/12/12 02:09:26;;;;;;;39.78;21.75;;;-3276.40;87.80;;;;;;5028186;28;20434;-74
2022/12/12 02:11:54;;;;;;;41.65;21.95;;;-3276.40;87.80;;;;;;5034226;28;20032;-78
2022/12/12 02:14:38;;;;;;;39.95;23.10;;;-3276.30;87.90;;;;;;5027951;28;20037;-76
2022/12/12 02:17:22;;;;;;;41.28;21.83;;;-3276.40;88.00;;;;;;5038335;28;20076;-77
2022/12/12 02:20:18;;;;;;;40.20;22.20;;;-3276.40;87.80;;;;;;5033843;28;20047;-79
2022/12/12 02:23:19;;;;;;;41.70;22.85;;;-3276.40;87.90;;;;;;5026193;28;20515;-76
2022/12/12 02:25:56;;;;;;;38.72;20.85;;;-3276.50;87.90;;;;;;5026766;28;20296;-74
2022/12/12 02:29:24;;;;;;;;;;;;;;;;;;;;;
2022/12/12 02:32:06;;;;;;;36.08;20.50;;;-3276.40;87.80;;;;;;5007953;28;21773;-79
2022/12/12 02:34:59;;;;;;;39.63;21.70;;;-3276.30;87.60;;;;;;4989627;28;20030;-82
2022/12/12 02:37:57;;;;;;;41.88;22.45;;;-3276.30;87.80;;;;;;5002771;28;20034;-74
2022/12/12 02:40:30;;;;;;;42.97;24.42;;;-3276.30;88.00;;;;;;5008327;28;20034;-75
2022/12/12 02:43:19;;;;;;;41.05;22.67;;;-3276.20;87.80;;;;;;5020071;28;20088;-78
2022/12/12 02:46:00;;;;;;;41.25;22.00;;;-3276.20;87.80;;;;;;5015967;28;20292;-75
2022/12/12 02:48:37;;;;;;;41.90;22.55;;;-3276.20;87.70;;;;;;5004253;28;20054;-74
2022/12/12 02:51:09;;;;;;;40.40;22.90;;;-3276.20;87.80;;;;;;5021560;28;20041;-76
2022/12/12 02:53:39;;;;;;;43.35;23.92;;;-3276.20;87.80;;;;;;5009324;28;20030;-73
2022/12/12 02:56:28;;;;;;;43.75;24.35;;;-3276.10;87.60;;;;;;5011964;28;20077;-77
2022/12/12 02:58:57;;;;;;;46.33;23.85;;;-3276.10;87.60;;;;;;5011582;28;20474;-77
2022/12/12 03:01:41;;;;;;;42.13;22.95;;;-3276.00;87.80;;;;;;5008954;28;20045;-78
2022/12/12 03:07:49;;;;;;;38.53;22.50;;;-3276.00;87.80;;;;;;5015941;28;20052;-74
2022/12/12 03:10:39;;;;;;;43.00;23.70;;;-3276.00;87.80;;;;;;5003480;28;20045;-76
2022/12/12 03:13:16;;;;;;;49.10;24.52;;;-3276.00;87.70;;;;;;5017134;28;20401;-77
2022/12/12 03:15:59;;;;;;;47.55;23.92;;;-3276.00;87.90;;;;;;5018534;28;20049;-78
2022/12/12 03:18:32;;;;;;;46.78;25.58;;;-3275.90;88.00;;;;;;5009085;28;20041;-74
2022/12/12 03:21:04;;;;;;;47.42;24.38;;;-3275.90;88.10;;;;;;5018257;28;20042;-81
2022/12/12 03:23:38;;;;;;;47.22;25.02;;;-3275.90;88.30;;;;;;5017837;28;20038;-79
2022/12/12 03:26:18;;;;;;;43.95;24.77;;;-3275.90;88.30;;;;;;5017501;28;20052;-79
2022/12/12 03:29:04;;;;;;;44.97;24.38;;;-3275.90;88.30;;;;;;5020319;28;20422;-76
2022/12/12 03:31:36;;;;;;;41.92;22.80;;;-3275.90;88.30;;;;;;5011851;28;20377;-76
2022/12/12 03:34:08;;;;;;;45.83;24.35;;;-3275.90;88.40;;;;;;5020171;28;20628;-75
2022/12/12 03:36:47;;;;;;;45.65;24.10;;;-3275.90;88.30;;;;;;5016522;28;20533;-74
2022/12/12 03:39:30;;;;;;;42.03;24.80;;;-3275.90;88.30;;;;;;5018398;28;20553;-76
2022/12/12 03:42:04;;;;;;;40.55;23.80;;;-3275.90;88.40;;;;;;5015998;28;20052;-78
2022/12/12 03:44:55;;;;;;;42.83;23.02;;;-3275.90;88.40;;;;;;5016298;28;20251;-75
2022/12/12 03:47:35;;;;;;;43.65;24.35;;;-3276.00;88.30;;;;;;5013629;28;20077;-75
2022/12/12 03:50:26;;;;;;;43.85;26.30;;;-3276.00;88.20;;;;;;5015916;28;20478;-75
2022/12/12 03:53:16;;;;;;;44.28;26.13;;;-3276.00;88.20;;;;;;5018379;28;20072;-75
2022/12/12 03:56:10;;;;;;;49.45;25.20;;;-3276.00;88.20;;;;;;5033924;28;20033;-80
2022/12/12 03:58:44;;;;;;;43.17;24.98;;;-3276.00;88.10;;;;;;5032327;28;20125;-76
2022/12/12 04:01:20;;;;;;;46.67;26.77;;;-3276.00;88.30;;;;;;5038297;28;20342;-77
2022/12/12 04:04:04;;;;;;;43.88;26.30;;;-3276.00;88.30;;;;;;5034978;28;20034;-74
2022/12/12 04:06:35;;;;;;;48.95;27.25;;;-3276.00;88.20;;;;;;5038472;28;20055;-74
2022/12/12 04:15:32;;;;;;;47.78;27.27;;;-3276.00;88.00;;;;;;5034956;28;20097;-77
2022/12/12 04:18:17;;;;;;;50.63;28.33;;;-3276.10;87.90;;;;;;5036730;28;20048;-80
2022/12/12 04:24:15;;;;;;;48.00;28.27;;;-3276.00;87.90;;;;;;5039397;28;20060;-82
2022/12/12 04:26:54;;;;;;;50.55;28.20;;;-3276.00;87.90;;;;;;5024194;28;20485;-73
2022/12/12 04:29:23;;;;;;;52.40;29.02;;;-3276.00;87.90;;;;;;5037334;28;20040;-79
2022/12/12 04:32:13;;;;;;;52.70;30.55;;;-3276.00;88.00;;;;;;5028458;28;20087;-75
2022/12/12 04:35:08;;;;;;;52.53;29.23;;;-3276.00;88.10;;;;;;5032508;28;20072;-77
2022/12/12 04:38:00;;;;;;;55.10;31.20;;;-3276.10;88.10;;;;;;5027308;28;20179;-74
2022/12/12 04:40:30;;;;;;;50.78;29.38;;;-3276.10;88.00;;;;;;5031324;28;20037;-79
2022/12/12 04:43:04;;;;;;;52.95;28.63;;;-3276.10;87.80;;;;;;5031592;28;20037;-74
2022/12/12 04:45:40;;;;;;;48.03;27.75;;;-3276.10;87.90;;;;;;5044128;28;20056;-76
2022/12/12 04:48:21;;;;;;;;;;;;;;;;;;;;;
2022/12/12 04:50:51;;;;;;;49.30;26.50;;;-3276.10;87.90;;;;;;5034995;28;20035;-76
2022/12/12 04:53:25;;;;;;;47.72;27.38;;;-3276.10;87.80;;;;;;5023261;28;20107;-78
2022/12/12 04:55:55;;;;;;;48.70;27.27;;;-3276.10;87.60;;;;;;5031319;28;20532;-79
2022/12/12 04:58:26;;;;;;;53.38;28.90;;;-3276.10;87.40;;;;;;5026090;28;20125;-80
2022/12/12 05:01:25;;;;;;;46.60;28.05;;;-3276.00;87.00;;;;;;5037552;28;20131;-74
2022/12/12 05:03:56;;;;;;;51.90;28.60;;;-3275.90;87.10;;;;;;5026482;28;20034;-79
2022/12/12 05:06:32;;;;;;;47.97;27.63;;;-3275.80;87.30;;;;;;5027603;28;20082;-74
2022/12/12 05:09:01;;;;;;;51.50;28.42;;;-3275.70;87.50;;;;;;5030755;28;20052;-76
2022/12/12 05:11:48;;;;;;;49.13;26.85;;;-3275.60;87.50;;;;;;5030191;28;20029;-76
2022/12/12 05:14:18;;;;;;;49.13;27.52;;;-3275.60;87.80;;;;;;5033626;28;20037;-77
2022/12/12 05:16:48;;;;;;;51.30;28.17;;;-3275.60;87.80;;;;;;5026806;28;20045;-75
2022/12/12 05:19:16;;;;;;;52.42;28.27;;;-3275.60;87.80;;;;;;5027084;28;20040;-75
2022/12/12 05:21:52;;;;;;;;;;;;;;;;;;;;;
2022/12/12 05:24:18;;;;;;;57.00;29.67;;;-3275.50;88.00;;;;;;5034858;28;20397;-80
2022/12/12 05:26:43;;;;;;;58.15;30.95;;;-3275.50;88.20;;;;;;5030780;28;20045;-74
2022/12/12 05:29:11;;;;;;;50.63;28.63;;;-3275.50;88.00;;;;;;5023367;28;20444;-73
2022/12/12 05:31:37;;;;;;;50.97;27.77;;;-3275.60;88.10;;;;;;5027713;28;20033;-76
2022/12/12 05:34:09;;;;;;;52.60;29.98;;;-3275.50;87.90;;;;;;5033736;28;20040;-74
2022/12/12 05:36:37;;;;;;;52.95;29.48;;;-3275.60;88.00;;;;;;5025588;28;20033;-76
2022/12/12 05:39:05;;;;;;;52.17;28.20;;;-3275.50;88.00;;;;;;5030710;28;20040;-77
2022/12/12 05:41:31;;;;;;;55.63;29.08;;;-3275.50;87.90;;;;;;5031798;28;20041;-76
2022/12/12 05:43:59;;;;;;;55.58;29.15;;;-3275.50;88.00;;;;;;5029843;28;20128;-75
2022/12/12 05:46:24;;;;;;;51.17;28.50;;;-3275.50;87.80;;;;;;5027428;28;20044;-77
2022/12/12 05:48:50;;;;;;;55.17;28.38;;;-3275.50;87.80;;;;;;5038674;28;20505;-77
2022/12/12 05:51:20;;;;;;;62.35;30.45;;;-3275.50;87.80;;;;;;5034112;28;20032;-79
2022/12/12 05:53:46;;;;;;;58.10;30.58;;;-3275.60;87.80;;;;;;5030443;28;20033;-73
2022/12/12 05:56:17;;;;;;;56.28;28.70;;;-3275.50;87.80;;;;;;5029850;28;20049;-73
2022/12/12 05:58:42;;;;;;;53.33;27.60;;;-3275.50;87.70;;;;;;5025785;28;20049;-78
2022/12/12 06:01:09;;;;;;;50.63;28.92;;;-3275.50;87.90;;;;;;5030347;28;20482;-77
2022/12/12 06:03:39;;;;;;;47.92;27.23;;;-3275.50;87.90;;;;;;5034755;28;20043;-74
2022/12/12 06:06:07;;;;;;;50.65;27.30;;;-3275.50;87.80;;;;;;5036100;28;20192;-77
2022/12/12 06:08:33;;;;;;;55.40;28.45;;;-3275.60;87.80;;;;;;5031637;28;20120;-77
2022/12/12 06:10:59;;;;;;;52.50;27.60;;;-3275.60;87.80;;;;;;5038332;28;20140;-75
2022/12/12 06:13:29;;;;;;;48.55;27.83;;;-3275.70;87.80;;;;;;5032316;28;20032;-82
2022/12/12 06:15:55;;;;;;;59.08;29.25;;;-3275.70;87.80;;;;;;5029307;28;20037;-77
2022/12/12 06:18:22;;;;;;;51.97;27.48;;;-3275.80;87.90;;;;;;5031130;28;20059;-78
2022/12/12 06:20:59;;;;;;;50.45;28.23;;;-3275.70;87.70;;;;;;5032194;28;20029;-82
2022/12/12 06:23:27;;;;;;;51.38;28.95;;;-3275.70;87.60;;;;;;5025500;28;20052;-82
2022/12/12 06:25:55;;;;;;;55.88;28.65;;;-3275.80;87.70;;;;;;5029507;28;20036;-82
2022/12/12 06:28:21;;;;;;;56.22;29.23;;;-3275.90;87.60;;;;;;5027312;28;20068;-76
2022/12/12 06:30:47;;;;;;;58.42;30.65;;;-3275.80;87.50;;;;;;5037037;28;20071;-80
2022/12/12 06:33:12;;;;;;;54.53;29.80;;;-3275.80;87.40;;;;;;5029935;28;20572;-77
2022/12/12 06:35:38;;;;;;;56.53;29.08;;;-3275.80;87.30;;;;;;5037038;28;20059;-76
2022/12/12 06:38:03;;;;;;;55.53;29.25;;;-3275.80;87.30;;;;;;5044183;28;20071;-75
2022/12/12 06:40:31;;;;;;;59.28;30.00;;;-3275.80;87.50;;;;;;5039224;28;20487;-78
2022/12/12 06:42:59;;;;;;;56.88;30.75;;;-3275.70;87.00;;;;;;5041789;28;20123;-79
2022/12/12 06:45:25;;;;;;;54.35;29.42;;;-3275.70;87.20;;;;;;5028285;28;20134;-81
2022/12/12 06:47:51;;;;;;;47.45;28.35;;;-3275.70;87.40;;;;;;5034406;28;20052;-86
2022/12/12 06:50:19;;;;;;;53.38;30.60;;;-3275.70;87.30;;;;;;5030370;28;20030;-82
2022/12/12 06:52:56;;;;;;;50.08;29.20;;;-3275.70;87.40;;;;;;5029645;28;20119;-78
2022/12/12 06:55:24;;;;;;;50.83;28.33;;;-3275.70;87.20;;;;;;5031003;28;20033;-78
2022/12/12 06:57:50;;;;;;;50.63;27.92;;;-3275.70;87.20;;;;;;5035045;28;20061;-80
2022/12/12 07:00:16;;;;;;;53.10;28.52;;;-3275.60;87.00;;;;;;5041024;28;20499;-76
2022/12/12 07:02:41;;;;;;;53.03;29.40;;;-3275.60;86.90;;;;;;5041446;28;20048;-73
2022/12/12 07:05:07;;;;;;;53.83;30.02;;;-3275.50;87.00;;;;;;5037410;28;20040;-79
2022/12/12 07:07:33;;;;;;;52.25;28.58;;;-3275.50;87.00;;;;;;5036619;28;20041;-81
2022/12/12 07:10:01;;;;;;;49.25;27.95;;;-3275.40;87.10;;;;;;5043166;28;20047;-77
2022/12/12 07:12:26;;;;;;;51.17;27.38;;;-3275.50;87.30;;;;;;5036400;28;20060;-82
2022/12/12 07:14:52;;;;;;;50.22;29.05;;;-3275.50;87.30;;;;;;5041205;28;20064;-75
2022/12/12 07:17:27;;;;;;;48.63;28.17;;;-3275.50;87.40;;;;;;5028529;28;20465;-77
2022/12/12 07:19:55;;;;;;;47.75;26.17;;;-3275.50;87.40;;;;;;5038556;28;20151;-78
2022/12/12 07:22:23;;;;;;;47.00;26.83;;;-3275.50;87.40;;;;;;5030573;28;20053;-78
2022/12/12 07:24:52;;;;;;;46.30;25.15;;;-3275.60;87.40;;;;;;5037862;28;20055;-74
2022/12/12 07:27:17;;;;;;;38.25;23.08;;;-3275.60;87.20;;;;;;5035247;28;20080;-81
2022/12/12 07:29:43;;;;;;;38.33;21.67;;;-3275.60;87.20;;;;;;5039937;28;20289;-76
2022/12/12 07:32:09;;;;;;;39.55;20.92;;;-3275.60;87.20;;;;;;5041954;28;20208;-75
2022/12/12 07:34:35;;;;;;;36.20;19.80;;;-3275.60;87.20;;;;;;5032535;28;20041;-81
2022/12/12 07:37:01;;;;;;;37.63;18.33;;;-3275.60;87.00;;;;;;5039557;28;20037;-76
2022/12/12 07:39:32;;;;;;;36.42;18.23;;;-3275.50;86.80;;;;;;5035154;28;20083;-78
2022/12/12 07:42:00;;;;;;;34.38;19.42;;;-3275.50;87.00;;;;;;5029182;28;20057;-77
2022/12/12 07:44:25;;;;;;;37.50;19.60;;;-3275.50;87.10;;;;;;5041643;28;20041;-75
2022/12/12 07:46:53;;;;;;;34.42;21.90;;;-3275.60;87.20;;;;;;5031361;28;20057;-75
2022/12/12 07:49:19;;;;;;;29.67;16.92;;;-3275.60;87.30;;;;;;5035135;28;20060;-74
2022/12/12 07:51:44;;;;;;;32.35;17.33;;;-3275.50;87.20;;;;;;5028557;28;20048;-75
2022/12/12 07:54:14;;;;;;;33.42;18.02;;;-3275.50;87.20;;;;;;5017940;28;20037;-76
2022/12/12 07:56:40;;;;;;;41.53;19.58;;;-3275.50;87.30;;;;;;5015659;28;20034;-75
2022/12/12 07:59:06;;;;;;;33.38;18.17;;;-3275.40;87.30;;;;;;5009506;28;20034;-77
2022/12/12 08:01:32;;;;;;;30.55;19.02;;;-3275.40;87.30;;;;;;5013070;28;20030;-76
2022/12/12 08:04:00;;;;;;;30.42;17.60;;;-3275.40;87.30;;;;;;5014504;28;20041;-76
2022/12/12 08:06:28;;;;;;;32.58;17.55;;;-3275.40;87.40;;;;;;5009452;28;20037;-75
2022/12/12 08:09:01;;;;;;;31.58;18.98;;;-3275.50;87.60;;;;;;5015375;28;20038;-76
2022/12/12 08:11:29;;;;;;;31.42;17.85;;;-3275.50;87.60;;;;;;5016224;28;20038;-75
2022/12/12 08:13:57;;;;;;;29.75;16.42;;;-3275.50;87.50;;;;;;5014483;28;20038;-73
2022/12/12 08:16:33;;;;;;;27.95;15.43;;;-3275.50;87.60;;;;;;5013102;28;20446;-75
2022/12/12 08:19:01;;;;;;;29.15;16.92;;;-3275.50;87.40;;;;;;5009227;28;20038;-76
2022/12/12 08:21:29;;;;;;;28.08;15.40;;;-3275.50;87.50;;;;;;5011058;28;20130;-75
2022/12/12 08:24:01;;;;;;;29.40;15.52;;;-3275.50;87.50;;;;;;5010998;28;20053;-74
2022/12/12 08:26:29;;;;;;;31.00;16.63;;;-3275.50;87.50;;;;;;5009281;28;20480;-78
2022/12/12 08:28:58;;;;;;;27.60;15.73;;;-3275.50;87.60;;;;;;5018346;28;20169;-76
2022/12/12 08:31:25;;;;;;;31.80;17.52;;;-3275.50;87.50;;;;;;5016289;28;20034;-74
2022/12/12 08:33:50;;;;;;;27.65;16.23;;;-3275.50;87.50;;;;;;5009189;28;20033;-80
2022/12/12 08:36:31;;;;;;;27.15;15.45;;;-3275.50;87.50;;;;;;5032287;28;20048;-75
2022/12/12 08:39:12;;;;;;;31.67;16.98;;;-3275.60;87.30;;;;;;5032272;28;20033;-77
2022/12/12 08:41:42;;;;;;;30.65;17.23;;;-3275.60;87.30;;;;;;5035116;28;20044;-79
2022/12/12 08:44:10;;;;;;;30.05;16.35;;;-3275.70;87.20;;;;;;5031621;28;20060;-76
2022/12/12 08:46:40;;;;;;;28.67;17.15;;;-3275.80;86.90;;;;;;5035238;28;20040;-76
2022/12/12 08:49:15;;;;;;;29.15;16.10;;;-3275.90;86.90;;;;;;5033962;28;20124;-77
2022/12/12 08:51:42;;;;;;;30.35;16.15;;;-3275.90;86.90;;;;;;5038409;28;20037;-81
2022/12/12 08:54:11;;;;;;;32.88;17.42;;;-3276.00;86.60;;;;;;5034052;28;20417;-78
2022/12/12 08:56:39;;;;;;;31.95;16.65;;;-3276.10;86.20;;;;;;5038773;28;20033;-78
2022/12/12 08:59:05;;;;;;;29.70;16.58;;;-3276.00;85.70;;;;;;5034066;28;20124;-79
2022/12/12 09:01:31;;;;;;;30.25;16.67;;;-3276.10;85.50;;;;;;5029328;28;20302;-76
2022/12/12 09:03:57;;;;;;;31.65;15.82;;;-3276.10;85.50;;;;;;5029521;28;20040;-78
2022/12/12 09:06:34;;;;;;;31.95;15.45;;;-3276.10;85.30;;;;;;5034549;28;20033;-76
2022/12/12 09:08:59;;;;;;;30.23;16.05;;;-3276.20;85.10;;;;;;5039780;28;20110;-76
2022/12/12 09:11:28;;;;;;;32.45;15.93;;;-3276.30;84.90;;;;;;5037315;28;20477;-75
2022/12/12 09:13:55;;;;;;;37.58;22.73;;;-3276.30;84.70;;;;;;5033182;28;20051;-75
2022/12/12 09:16:22;;;;;;;32.35;16.73;;;-3276.30;84.40;;;;;;5028835;28;20036;-75
2022/12/12 09:18:50;;;;;;;33.78;17.50;;;-3276.30;84.40;;;;;;5030015;28;20118;-75
2022/12/12 09:21:16;;;;;;;31.95;17.65;;;-3276.40;84.50;;;;;;5034442;28;20277;-73
2022/12/12 09:23:49;;;;;;;28.63;16.30;;;-3276.60;84.60;;;;;;5035077;28;20044;-75
2022/12/12 09:26:17;;;;;;;32.72;16.23;;;-3276.60;84.10;;;;;;5039589;28;20372;-75
2022/12/12 09:28:45;;;;;;;35.33;16.73;;;0.00;83.60;;;;;;5036146;28;20090;-76
2022/12/12 09:31:12;;;;;;;31.02;15.48;;;0.00;83.50;;;;;;5032290;28;20045;-78
2022/12/12 09:33:38;;;;;;;31.23;16.90;;;0.00;82.90;;;;;;5037016;28;20029;-75
2022/12/12 09:36:07;;;;;;;31.42;16.75;;;0.00;82.80;;;;;;5030911;28;20039;-76
2022/12/12 09:38:34;;;;;;;31.20;16.48;;;0.00;82.80;;;;;;5031795;28;20060;-79
2022/12/12 09:41:17;;;;;;;29.92;16.58;;;0.00;82.60;;;;;;5029792;28;20585;-75
2022/12/12 09:43:59;;;;;;;34.88;17.30;;;0.00;83.00;;;;;;5031682;28;20101;-77
2022/12/12 09:46:41;;;;;;;32.28;18.02;;;0.00;82.40;;;;;;5031361;28;20112;-75
2022/12/12 09:49:25;;;;;;;31.85;17.60;;;0.00;82.30;;;;;;5030188;28;20459;-75
2022/12/12 09:51:51;;;;;;;31.17;16.38;;;0.20;82.40;;;;;;5038567;28;20441;-76
2022/12/12 09:54:28;;;;;;;37.25;19.25;;;0.20;81.50;;;;;;5026221;28;20052;-76
2022/12/12 09:57:14;;;;;;;37.08;18.83;;;0.20;81.50;;;;;;5026232;28;20129;-76
2022/12/12 09:59:52;;;;;;;35.78;18.27;;;0.30;81.20;;;;;;5023349;28;20037;-76
2022/12/12 10:02:44;;;;;;;44.20;19.98;;;0.30;81.10;;;;;;5040650;28;20112;-76
2022/12/12 10:05:31;;;;;;;40.30;19.60;;;0.40;80.90;;;;;;5027772;28;20033;-75
2022/12/12 10:07:59;;;;;;;38.22;19.08;;;0.40;80.50;;;;;;5030919;28;20041;-77
2022/12/12 10:10:38;;;;;;;40.05;19.25;;;0.50;80.40;;;;;;5033551;28;20041;-76
2022/12/12 10:13:15;;;;;;;38.13;18.45;;;0.50;80.10;;;;;;5026921;28;20516;-75
2022/12/12 10:15:46;;;;;;;46.03;20.95;;;0.60;79.90;;;;;;5024926;28;20064;-76
2022/12/12 10:18:19;;;;;;;37.30;17.92;;;0.80;80.20;;;;;;5030057;28;20026;-77
2022/12/12 10:20:55;;;;;;;36.92;18.42;;;0.90;79.40;;;;;;5027882;28;20115;-76
2022/12/12 10:23:41;;;;;;;36.42;18.15;;;0.90;78.70;;;;;;5033877;28;20390;-79
2022/12/12 10:26:12;;;;;;;35.92;17.70;;;0.90;78.50;;;;;;5032931;28;20039;-77
2022/12/12 10:28:40;;;;;;;41.75;19.30;;;0.80;78.20;;;;;;5035079;28;20094;-76
2022/12/12 10:31:21;;;;;;;33.50;18.02;;;0.70;78.60;;;;;;5029043;28;20529;-76
2022/12/12 10:34:11;;;;;;;40.80;19.80;;;0.80;78.80;;;;;;5032615;28;20045;-77
2022/12/12 10:36:56;;;;;;;38.42;18.67;;;1.00;78.70;;;;;;5039264;28;20033;-78
2022/12/12 10:39:37;;;;;;;37.72;17.83;;;1.00;78.10;;;;;;5035596;28;20574;-78
2022/12/12 10:42:34;;;;;;;32.58;17.63;;;1.10;78.10;;;;;;5037415;28;20146;-76
2022/12/12 10:45:29;;;;;;;31.70;17.02;;;1.10;77.60;;;;;;5029119;28;20037;-76
2022/12/12 10:47:57;;;;;;;35.25;18.33;;;1.20;77.90;;;;;;5030067;28;20045;-78
2022/12/12 10:50:33;;;;;;;32.47;17.58;;;1.30;76.90;;;;;;5028025;28;20034;-81
2022/12/12 10:53:04;;;;;;;35.63;18.02;;;1.40;77.10;;;;;;5030004;28;20056;-78
2022/12/12 10:55:36;;;;;;;36.47;17.35;;;1.20;76.80;;;;;;5030486;28;20079;-76
2022/12/12 10:58:05;;;;;;;30.05;16.70;;;1.30;76.80;;;;;;5023507;28;20593;-76
2022/12/12 11:00:42;;;;;;;32.25;16.63;;;1.30;76.50;;;;;;5024813;28;20064;-77
2022/12/12 11:03:30;;;;;;;31.38;15.30;;;1.30;76.50;;;;;;5026148;28;20474;-76
2022/12/12 11:05:56;;;;;;;32.30;16.80;;;1.40;76.40;;;;;;5024774;28;20541;-78
2022/12/12 11:08:37;;;;;;;28.85;15.77;;;1.40;76.10;;;;;;5028133;28;20131;-78
2022/12/12 11:11:26;;;;;;;33.35;16.45;;;1.40;76.40;;;;;;5022570;28;20071;-77
2022/12/12 11:14:01;;;;;;;33.50;17.95;;;1.40;76.40;;;;;;5024663;28;20537;-77
2022/12/12 11:16:43;;;;;;;33.33;17.60;;;1.60;76.30;;;;;;5029783;28;20108;-82
2022/12/12 11:19:22;;;;;;;44.13;26.08;;;1.70;75.90;;;;;;5029309;28;20045;-77
2022/12/12 11:21:48;;;;;;;73.95;41.88;;;1.70;75.40;;;;;;5032772;28;20049;-77
2022/12/12 11:24:28;;;;;;;49.50;27.77;;;1.80;75.60;;;;;;5034753;28;20077;-76
2022/12/12 11:27:01;;;;;;;31.33;18.98;;;1.90;75.30;;;;;;5026097;28;20091;-76
2022/12/12 11:29:39;;;;;;;30.23;16.98;;;1.90;74.30;;;;;;5025720;28;20150;-77
2022/12/12 11:32:15;;;;;;;29.63;16.73;;;1.90;74.50;;;;;;5024486;28;20385;-78
2022/12/12 11:34:46;;;;;;;30.92;16.48;;;1.80;74.20;;;;;;5022623;28;20350;-77
2022/12/12 11:37:19;;;;;;;29.45;16.85;;;1.90;75.00;;;;;;5028585;28;20037;-79
2022/12/12 11:39:58;;;;;;;;;;;;;;;;;;;;;
2022/12/12 11:42:28;;;;;;;31.88;16.17;;;2.00;74.10;;;;;;5027693;28;20047;-79
2022/12/12 11:45:04;;;;;;;30.40;16.67;;;2.10;73.60;;;;;;5033760;28;20025;-75
2022/12/12 11:47:37;;;;;;;35.58;16.85;;;2.00;73.50;;;;;;5031973;28;20057;-75
2022/12/12 11:50:18;;;;;;;32.97;16.30;;;2.00;73.70;;;;;;5022283;28;20038;-75
2022/12/12 11:52:47;;;;;;;28.27;15.82;;;2.10;74.00;;;;;;5046915;28;20041;-74
2022/12/12 11:55:26;;;;;;;;;;;;;;;;;;;;;
2022/12/12 11:58:27;;;;;;;29.67;16.85;;;2.20;73.30;;;;;;5029221;28;20025;-81
2022/12/12 12:01:16;;;;;;;28.40;15.50;;;2.20;73.30;;;;;;5035585;28;20120;-78
2022/12/12 12:04:02;;;;;;;28.90;15.55;;;2.30;73.50;;;;;;5030832;28;20401;-79
2022/12/12 12:06:36;;;;;;;26.33;13.10;;;2.20;72.70;;;;;;5028567;28;20035;-77
2022/12/12 12:09:07;;;;;;;26.48;14.63;;;2.10;72.50;;;;;;5028464;28;20549;-76
2022/12/12 12:12:00;;;;;;;23.17;13.95;;;2.10;73.20;;;;;;5047430;28;20085;-79
2022/12/12 12:14:44;;;;;;;23.73;13.50;;;2.20;73.10;;;;;;5041902;28;20464;-78
2022/12/12 12:17:47;;;;;;;23.90;13.57;;;2.30;72.70;;;;;;5024894;28;20584;-76
2022/12/12 12:20:32;;;;;;;21.40;13.60;;;2.10;72.50;;;;;;5021441;28;20087;-77
2022/12/12 12:23:22;;;;;;;20.42;12.90;;;2.10;72.80;;;;;;5030068;28;20053;-78
2022/12/12 12:26:06;;;;;;;23.20;13.05;;;2.10;73.20;;;;;;5027979;28;20052;-78
2022/12/12 12:28:51;;;;;;;23.95;12.77;;;2.10;73.20;;;;;;5026691;28;20052;-76
2022/12/12 12:31:59;;;;;;;24.05;13.55;;;2.10;72.90;;;;;;5032337;28;20492;-78
2022/12/12 12:34:39;;;;;;;23.90;14.20;;;2.20;73.10;;;;;;5024346;28;20129;-76
2022/12/12 12:37:39;;;;;;;23.20;14.23;;;2.20;73.10;;;;;;5027339;28;20033;-75
2022/12/12 12:40:22;;;;;;;23.02;13.98;;;2.20;73.00;;;;;;5018224;28;20095;-78
2022/12/12 12:42:59;;;;;;;22.55;13.20;;;2.10;72.90;;;;;;5027994;28;20576;-76
2022/12/12 12:45:46;;;;;;;23.50;13.57;;;2.10;73.00;;;;;;5025991;28;20709;-76
2022/12/12 12:48:26;;;;;;;22.63;13.43;;;2.10;73.40;;;;;;5025505;28;20453;-77
2022/12/12 12:51:12;;;;;;;23.45;13.65;;;2.20;73.60;;;;;;5027547;28;20876;-77
2022/12/12 12:53:52;;;;;;;24.50;14.77;;;2.10;73.20;;;;;;5041647;28;20466;-74
2022/12/12 12:56:36;;;;;;;26.80;14.40;;;2.20;73.40;;;;;;5037208;28;20095;-76
2022/12/12 12:59:10;;;;;;;25.25;13.88;;;2.20;73.10;;;;;;5028561;28;20025;-78
2022/12/12 13:01:50;;;;;;;25.05;14.25;;;2.20;73.20;;;;;;5024540;28;20037;-75
2022/12/12 13:04:25;;;;;;;25.58;14.40;;;2.20;72.80;;;;;;5017754;28;20576;-78
2022/12/12 13:07:15;;;;;;;25.63;15.13;;;2.20;72.90;;;;;;5026050;28;20100;-79